createdAt,value
2023-05-03T00:01:01.031Z,7.80
2023-05-03T00:03:28.419Z,7.70
2023-05-03T00:05:55.332Z,7.70
2023-05-03T00:08:22.322Z,7.70
2023-05-03T00:10:49.136Z,7.60
2023-05-03T00:13:16.035Z,7.60
2023-05-03T00:15:42.925Z,7.60
2023-05-03T00:18:09.863Z,7.50
2023-05-03T00:20:37.043Z,7.40
2023-05-03T00:23:04.689Z,7.40
2023-05-03T00:25:31.584Z,7.30
2023-05-03T00:27:58.503Z,7.30
2023-05-03T00:30:25.660Z,7.20
2023-05-03T00:32:52.591Z,7.10
2023-05-03T00:35:19.657Z,7.10
2023-05-03T00:37:46.594Z,7.10
2023-05-03T00:40:15.550Z,7.00
2023-05-03T00:42:42.468Z,7.00
2023-05-03T00:45:09.593Z,6.90
2023-05-03T00:47:36.548Z,6.80
2023-05-03T00:50:03.689Z,6.80
2023-05-03T00:52:31.200Z,6.80
2023-05-03T00:54:58.110Z,6.80
2023-05-03T00:57:25.633Z,6.70
2023-05-03T00:59:52.907Z,6.70
2023-05-03T01:02:19.754Z,6.60
2023-05-03T01:04:47.088Z,6.60
2023-05-03T01:07:23.066Z,6.50
2023-05-03T01:09:59.531Z,6.50
2023-05-03T01:12:45.146Z,6.50
2023-05-03T01:15:32.320Z,6.50
2023-05-03T01:18:00.222Z,6.50
2023-05-03T01:20:28.484Z,6.40
2023-05-03T01:22:58.683Z,6.40
2023-05-03T01:25:27.058Z,6.40
2023-05-03T01:27:53.908Z,6.40
2023-05-03T01:30:21.920Z,6.40
2023-05-03T01:32:54.850Z,6.30
2023-05-03T01:35:27.932Z,6.20
2023-05-03T01:37:56.188Z,6.20
2023-05-03T01:40:23.721Z,6.20
2023-05-03T01:42:50.701Z,6.10
2023-05-03T01:45:17.678Z,6.10
2023-05-03T01:47:44.640Z,6.10
2023-05-03T01:50:11.575Z,6.10
2023-05-03T01:52:38.457Z,6.10
2023-05-03T01:55:05.835Z,6.10
2023-05-03T01:57:32.695Z,6.10
2023-05-03T01:59:59.562Z,6.10
2023-05-03T02:02:26.642Z,6.10
2023-05-03T02:04:53.633Z,6.10
2023-05-03T02:07:20.854Z,6.10
2023-05-03T02:09:47.746Z,6.10
2023-05-03T02:12:14.716Z,6.10
2023-05-03T02:14:41.631Z,6.10
2023-05-03T02:17:09.441Z,6.10
2023-05-03T02:19:36.384Z,6.10
2023-05-03T02:22:03.298Z,6.10
2023-05-03T02:24:31.338Z,6.00
2023-05-03T02:26:58.278Z,6.00
2023-05-03T02:29:25.146Z,6.00
2023-05-03T02:31:53.023Z,5.90
2023-05-03T02:34:19.917Z,5.90
2023-05-03T02:36:47.536Z,5.90
2023-05-03T02:39:15.130Z,5.80
2023-05-03T02:41:42.048Z,5.80
2023-05-03T02:44:09.189Z,5.80
2023-05-03T02:46:36.178Z,5.80
2023-05-03T02:49:03.593Z,5.80
2023-05-03T02:51:31.207Z,5.70
2023-05-03T02:53:58.110Z,5.70
2023-05-03T02:56:26.744Z,5.70
2023-05-03T02:58:53.820Z,5.70
2023-05-03T03:01:21.854Z,5.70
2023-05-03T03:03:48.841Z,5.70
2023-05-03T03:06:15.793Z,5.70
2023-05-03T03:08:42.761Z,5.70
2023-05-03T03:11:09.679Z,5.60
2023-05-03T03:13:39.895Z,5.60
2023-05-03T03:16:07.784Z,5.60
2023-05-03T03:18:35.942Z,5.50
2023-05-03T03:21:03.615Z,5.50
2023-05-03T03:23:32.177Z,5.50
2023-05-03T03:25:59.261Z,5.50
2023-05-03T03:28:26.706Z,5.50
2023-05-03T03:30:55.727Z,5.40
2023-05-03T03:33:25.937Z,5.40
2023-05-03T03:35:57.870Z,5.40
2023-05-03T03:38:29.666Z,5.40
2023-05-03T03:41:01.983Z,5.40
2023-05-03T03:43:29.431Z,5.40
2023-05-03T03:45:57.342Z,5.40
2023-05-03T03:48:24.627Z,5.40
2023-05-03T03:50:51.588Z,5.40
2023-05-03T03:53:21.158Z,5.40
2023-05-03T03:55:48.603Z,5.40
2023-05-03T03:58:17.626Z,5.40
2023-05-03T04:00:44.846Z,5.30
2023-05-03T04:03:16.143Z,5.30
2023-05-03T04:05:43.651Z,5.30
2023-05-03T04:08:10.735Z,5.30
2023-05-03T04:10:38.825Z,5.30
2023-05-03T04:13:06.161Z,5.30
2023-05-03T04:15:33.209Z,5.20
2023-05-03T04:18:02.373Z,5.30
2023-05-03T04:20:29.568Z,5.20
2023-05-03T04:22:56.573Z,5.20
2023-05-03T04:25:28.063Z,5.20
2023-05-03T04:28:00.504Z,5.10
2023-05-03T04:30:29.573Z,5.10
2023-05-03T04:33:00.940Z,5.00
2023-05-03T04:35:30.282Z,5.00
2023-05-03T04:37:59.363Z,5.10
2023-05-03T04:40:28.114Z,5.00
2023-05-03T04:43:05.639Z,5.00
2023-05-03T04:45:36.174Z,5.00
2023-05-03T04:48:05.634Z,5.00
2023-05-03T04:50:33.498Z,5.10
2023-05-03T04:53:00.587Z,5.00
2023-05-03T04:55:28.790Z,5.10
2023-05-03T04:57:58.229Z,5.10
2023-05-03T05:00:25.826Z,5.10
2023-05-03T05:02:59.260Z,5.10
2023-05-03T05:05:28.989Z,5.10
2023-05-03T05:07:58.392Z,5.20
2023-05-03T05:10:27.905Z,5.30
2023-05-03T05:12:56.381Z,5.30
2023-05-03T05:15:23.660Z,5.40
2023-05-03T05:17:51.094Z,5.40
2023-05-03T05:20:20.062Z,5.50
2023-05-03T05:22:49.856Z,5.50
2023-05-03T05:25:16.841Z,5.60
2023-05-03T05:27:44.302Z,5.60
2023-05-03T05:30:11.437Z,5.70
2023-05-03T05:32:41.145Z,5.70
2023-05-03T05:35:10.902Z,5.80
2023-05-03T05:37:37.831Z,5.90
2023-05-03T05:40:08.013Z,6.00
2023-05-03T05:42:41.200Z,6.20
2023-05-03T05:45:08.614Z,6.30
2023-05-03T05:47:36.745Z,6.50
2023-05-03T05:50:09.628Z,6.50
2023-05-03T05:52:43.093Z,6.70
2023-05-03T05:55:14.864Z,6.90
2023-05-03T05:57:43.041Z,7.00
2023-05-03T06:00:14.931Z,7.10
2023-05-03T06:02:44.667Z,7.30
2023-05-03T06:05:16.303Z,7.40
2023-05-03T06:07:43.249Z,7.60
2023-05-03T06:10:10.322Z,7.80
2023-05-03T06:12:39.715Z,7.90
2023-05-03T06:15:11.952Z,8.00
2023-05-03T06:17:40.130Z,8.10
2023-05-03T06:20:11.876Z,8.30
2023-05-03T06:22:40.133Z,8.40
2023-05-03T06:25:07.844Z,8.50
2023-05-03T06:27:35.019Z,8.70
2023-05-03T06:30:02.150Z,8.70
2023-05-03T06:32:29.407Z,8.80
2023-05-03T06:34:59.666Z,8.90
2023-05-03T06:37:26.815Z,9.00
2023-05-03T06:39:53.951Z,9.10
2023-05-03T06:42:21.169Z,9.20
2023-05-03T06:44:48.497Z,9.40
2023-05-03T06:47:15.656Z,9.50
2023-05-03T06:49:43.039Z,9.60
2023-05-03T06:52:11.582Z,9.70
2023-05-03T06:54:38.830Z,9.90
2023-05-03T06:57:05.881Z,10.20
2023-05-03T06:59:32.879Z,10.80
2023-05-03T07:01:59.875Z,11.30
2023-05-03T07:04:26.829Z,11.40
2023-05-03T07:06:56.839Z,11.40
2023-05-03T07:09:41.393Z,11.80
2023-05-03T07:12:10.006Z,12.30
2023-05-03T07:14:36.981Z,12.80
2023-05-03T07:17:03.903Z,13.30
2023-05-03T07:19:30.833Z,13.80
2023-05-03T07:21:57.750Z,14.10
2023-05-03T07:24:27.651Z,14.30
2023-05-03T07:26:54.616Z,14.70
2023-05-03T07:29:21.607Z,15.20
2023-05-03T07:31:48.770Z,15.30
2023-05-03T07:34:16.471Z,15.30
2023-05-03T07:36:43.514Z,15.40
2023-05-03T07:39:10.943Z,15.60
2023-05-03T07:41:37.799Z,15.90
2023-05-03T07:44:04.845Z,16.30
2023-05-03T07:46:35.329Z,16.40
2023-05-03T07:49:04.332Z,16.00
2023-05-03T07:51:35.174Z,16.40
2023-05-03T07:54:02.077Z,16.80
2023-05-03T07:56:29.029Z,16.80
2023-05-03T07:59:07.539Z,16.30
2023-05-03T08:01:35.933Z,15.80
2023-05-03T08:04:03.048Z,16.10
2023-05-03T08:06:30.223Z,16.20
2023-05-03T08:08:57.138Z,16.30
2023-05-03T08:11:24.017Z,16.90
2023-05-03T08:13:51.073Z,17.20
2023-05-03T08:16:18.218Z,17.70
2023-05-03T08:18:45.560Z,18.00
2023-05-03T08:21:13.671Z,18.10
2023-05-03T08:23:40.647Z,18.20
2023-05-03T08:26:11.118Z,17.70
2023-05-03T08:28:38.209Z,17.40
2023-05-03T08:31:05.196Z,17.50
2023-05-03T08:33:32.214Z,17.00
2023-05-03T08:35:59.244Z,17.10
2023-05-03T08:38:26.811Z,16.30
2023-05-03T08:40:54.181Z,16.40
2023-05-03T08:43:22.057Z,17.00
2023-05-03T08:45:49.101Z,17.60
2023-05-03T08:48:16.712Z,18.30
2023-05-03T08:50:43.630Z,18.90
2023-05-03T08:53:11.125Z,19.30
2023-05-03T08:55:38.118Z,19.20
2023-05-03T08:58:13.199Z,19.10
2023-05-03T09:00:45.209Z,18.40
2023-05-03T09:03:12.831Z,18.00
2023-05-03T09:05:41.489Z,18.20
2023-05-03T09:08:09.965Z,18.00
2023-05-03T09:10:37.688Z,17.80
2023-05-03T09:13:04.678Z,18.00
2023-05-03T09:15:31.845Z,17.90
2023-05-03T09:18:11.112Z,18.40
2023-05-03T09:20:39.069Z,18.10
2023-05-03T09:23:09.195Z,17.50
2023-05-03T09:25:46.264Z,17.70
2023-05-03T09:28:13.802Z,17.00
2023-05-03T09:30:40.704Z,16.80
2023-05-03T09:33:08.290Z,16.80
2023-05-03T09:35:35.387Z,16.80
2023-05-03T09:38:02.263Z,16.90
2023-05-03T09:40:29.580Z,17.10
2023-05-03T09:43:09.304Z,17.20
2023-05-03T09:45:36.816Z,16.30
2023-05-03T09:48:04.514Z,15.60
2023-05-03T09:50:35.218Z,16.10
2023-05-03T09:53:03.545Z,16.60
2023-05-03T09:55:34.498Z,16.50
2023-05-03T09:58:01.743Z,16.90
2023-05-03T10:00:30.763Z,16.50
2023-05-03T10:03:00.333Z,15.80
2023-05-03T10:05:27.398Z,15.70
2023-05-03T10:07:54.321Z,15.60
2023-05-03T10:10:21.359Z,15.70
2023-05-03T10:12:48.434Z,15.60
2023-05-03T10:15:15.388Z,15.90
2023-05-03T10:17:47.053Z,16.30
2023-05-03T10:20:17.805Z,16.30
2023-05-03T10:23:03.527Z,16.20
2023-05-03T10:25:30.775Z,16.00
2023-05-03T10:28:03.934Z,15.90
2023-05-03T10:30:32.694Z,15.70
2023-05-03T10:33:00.419Z,15.80
2023-05-03T10:35:28.283Z,15.90
2023-05-03T10:37:57.166Z,16.30
2023-05-03T10:40:24.216Z,16.10
2023-05-03T10:42:52.524Z,15.50
2023-05-03T10:45:26.565Z,15.40
2023-05-03T10:48:23.203Z,15.40
2023-05-03T10:50:51.156Z,15.60
2023-05-03T10:53:37.071Z,15.30
2023-05-03T10:56:11.111Z,15.20
2023-05-03T10:58:41.169Z,15.40
2023-05-03T11:01:09.387Z,15.80
2023-05-03T11:03:36.714Z,15.80
2023-05-03T11:06:04.318Z,15.60
2023-05-03T11:08:37.491Z,15.40
2023-05-03T11:11:10.121Z,14.90
2023-05-03T11:13:37.499Z,15.00
2023-05-03T11:16:06.020Z,15.00
2023-05-03T11:18:33.302Z,14.90
2023-05-03T11:21:00.213Z,14.80
2023-05-03T11:23:28.830Z,14.90
2023-05-03T11:25:57.899Z,14.80
2023-05-03T11:28:25.783Z,14.80
2023-05-03T11:30:52.674Z,14.90
2023-05-03T11:33:19.676Z,15.00
2023-05-03T11:35:47.217Z,15.10
2023-05-03T11:38:14.214Z,15.00
2023-05-03T11:40:41.813Z,15.20
2023-05-03T11:43:08.836Z,15.20
2023-05-03T11:45:39.995Z,15.10
2023-05-03T11:48:07.370Z,15.00
2023-05-03T11:50:47.101Z,15.10
2023-05-03T11:53:14.337Z,15.30
2023-05-03T11:55:42.000Z,15.20
2023-05-03T11:58:09.999Z,15.20
2023-05-03T12:00:37.023Z,15.10
2023-05-03T12:03:04.115Z,15.20
2023-05-03T12:05:31.356Z,15.00
2023-05-03T12:07:59.040Z,15.20
2023-05-03T12:10:32.698Z,15.40
2023-05-03T12:13:00.765Z,15.20
2023-05-03T12:15:30.160Z,15.00
2023-05-03T12:18:00.162Z,14.90
2023-05-03T12:23:11.447Z,14.90
2023-05-03T12:25:40.473Z,15.00
2023-05-03T12:30:41.125Z,15.40
2023-05-03T12:33:10.073Z,15.40
2023-05-03T12:35:40.129Z,15.30
2023-05-03T12:38:09.901Z,15.10
2023-05-03T12:40:37.788Z,15.00
2023-05-03T12:43:04.968Z,15.00
2023-05-03T12:45:34.512Z,14.90
2023-05-03T12:48:03.113Z,14.80
2023-05-03T12:50:31.822Z,15.10
2023-05-03T12:53:02.276Z,14.90
2023-05-03T12:55:35.312Z,14.80
2023-05-03T12:58:36.830Z,14.60
2023-05-03T13:01:25.372Z,14.80
2023-05-03T13:03:43.494Z,14.60
2023-05-03T13:06:14.135Z,14.60
2023-05-03T13:08:49.422Z,14.70
2023-05-03T13:11:19.601Z,14.60
2023-05-03T13:13:46.779Z,14.80
2023-05-03T13:16:14.701Z,14.80
2023-05-03T13:18:43.225Z,14.50
2023-05-03T13:21:10.899Z,14.70
2023-05-03T13:23:38.002Z,14.50
2023-05-03T13:26:05.149Z,14.60
2023-05-03T13:28:32.057Z,14.70
2023-05-03T13:30:59.025Z,15.00
2023-05-03T13:33:25.892Z,14.80
2023-05-03T13:35:52.911Z,14.80
2023-05-03T13:38:19.883Z,14.90
2023-05-03T13:40:47.045Z,15.00
2023-05-03T13:43:13.952Z,14.60
2023-05-03T13:45:41.146Z,14.60
2023-05-03T13:48:18.818Z,14.60
2023-05-03T13:50:46.188Z,14.60
2023-05-03T13:53:13.118Z,14.40
2023-05-03T13:55:39.950Z,14.40
2023-05-03T13:58:06.967Z,14.30
2023-05-03T14:00:33.864Z,14.50
2023-05-03T14:03:00.981Z,14.30
2023-05-03T14:05:28.326Z,14.30
2023-05-03T14:07:55.342Z,14.40
2023-05-03T14:10:22.170Z,14.40
2023-05-03T14:12:49.277Z,14.20
2023-05-03T14:15:17.242Z,14.40
2023-05-03T14:17:46.729Z,14.40
2023-05-03T14:20:13.685Z,14.30
2023-05-03T14:22:40.740Z,14.10
2023-05-03T14:25:08.195Z,14.40
2023-05-03T14:27:35.172Z,14.40
2023-05-03T14:30:02.541Z,14.20
2023-05-03T14:32:29.926Z,14.10
2023-05-03T14:34:57.166Z,14.10
2023-05-03T14:37:24.063Z,14.20
2023-05-03T14:39:52.009Z,14.00
2023-05-03T14:42:19.060Z,14.30
2023-05-03T14:44:45.896Z,14.40
2023-05-03T14:47:12.768Z,14.20
2023-05-03T14:49:42.546Z,14.10
2023-05-03T14:52:09.410Z,14.00
2023-05-03T14:54:37.112Z,14.00
2023-05-03T14:57:04.780Z,14.10
2023-05-03T14:59:32.217Z,14.00
2023-05-03T15:01:59.397Z,14.20
2023-05-03T15:04:26.442Z,14.20
2023-05-03T15:06:53.890Z,14.40
2023-05-03T15:09:20.805Z,14.30
2023-05-03T15:11:47.812Z,14.20
2023-05-03T15:14:14.785Z,14.00
2023-05-03T15:16:41.746Z,14.00
2023-05-03T15:19:08.677Z,13.90
2023-05-03T15:21:44.356Z,13.90
2023-05-03T15:24:11.419Z,13.90
2023-05-03T15:26:38.295Z,13.80
2023-05-03T15:29:05.265Z,13.70
2023-05-03T15:31:32.953Z,13.60
2023-05-03T15:34:02.562Z,13.40
2023-05-03T15:36:29.713Z,13.50
2023-05-03T15:38:56.580Z,13.50
2023-05-03T15:41:23.581Z,13.50
2023-05-03T15:43:50.609Z,13.60
2023-05-03T15:46:17.720Z,13.70
2023-05-03T15:48:44.806Z,13.60
2023-05-03T15:51:11.682Z,13.60
2023-05-03T15:53:38.627Z,13.60
2023-05-03T15:56:05.699Z,13.60
2023-05-03T15:58:33.633Z,13.20
2023-05-03T16:01:00.525Z,13.30
2023-05-03T16:03:28.797Z,13.50
2023-05-03T16:05:56.214Z,13.50
2023-05-03T16:08:23.032Z,13.50
2023-05-03T16:10:50.146Z,13.40
2023-05-03T16:13:17.185Z,13.40
2023-05-03T16:15:44.732Z,13.20
2023-05-03T16:18:12.088Z,13.10
2023-05-03T16:20:39.228Z,13.10
2023-05-03T16:23:06.074Z,13.10
2023-05-03T16:25:33.379Z,12.90
2023-05-03T16:28:00.273Z,12.80
2023-05-03T16:30:27.253Z,12.90
2023-05-03T16:32:54.833Z,12.80
2023-05-03T16:35:21.814Z,12.70
2023-05-03T16:37:48.903Z,12.70
2023-05-03T16:40:15.852Z,12.70
2023-05-03T16:42:42.906Z,12.80
2023-05-03T16:45:10.916Z,12.80
2023-05-03T16:47:38.171Z,12.70
2023-05-03T16:50:05.873Z,12.80
2023-05-03T16:52:34.068Z,12.90
2023-05-03T16:55:01.442Z,12.90
2023-05-03T16:57:28.344Z,12.80
2023-05-03T16:59:55.445Z,12.80
2023-05-03T17:02:22.537Z,12.70
2023-05-03T17:04:49.592Z,12.50
2023-05-03T17:07:16.626Z,12.40
2023-05-03T17:09:43.610Z,12.40
2023-05-03T17:12:10.531Z,12.50
2023-05-03T17:14:37.393Z,12.50
2023-05-03T17:17:04.409Z,12.30
2023-05-03T17:19:33.364Z,12.30
2023-05-03T17:22:00.218Z,12.40
2023-05-03T17:24:27.444Z,12.30
2023-05-03T17:26:55.496Z,12.20
2023-05-03T17:29:22.527Z,12.20
2023-05-03T17:31:49.467Z,12.10
2023-05-03T17:34:16.378Z,12.00
2023-05-03T17:36:43.327Z,11.90
2023-05-03T17:39:10.269Z,11.90
2023-05-03T17:41:37.275Z,11.80
2023-05-03T17:44:04.308Z,11.80
2023-05-03T17:46:32.907Z,11.80
2023-05-03T17:49:00.682Z,11.70
2023-05-03T17:51:27.677Z,11.70
2023-05-03T17:53:54.936Z,11.70
2023-05-03T17:56:22.029Z,11.50
2023-05-03T17:58:48.935Z,11.40
2023-05-03T18:01:16.134Z,11.50
2023-05-03T18:03:43.333Z,11.40
2023-05-03T18:06:11.121Z,11.30
2023-05-03T18:08:37.997Z,11.30
2023-05-03T18:11:04.880Z,11.40
2023-05-03T18:13:34.826Z,11.40
2023-05-03T18:16:01.895Z,11.30
2023-05-03T18:18:28.779Z,11.30
2023-05-03T18:20:59.751Z,11.40
2023-05-03T18:23:26.698Z,11.30
2023-05-03T18:25:53.717Z,11.30
2023-05-03T18:28:22.737Z,11.20
2023-05-03T18:30:51.407Z,11.20
2023-05-03T18:33:18.975Z,11.20
2023-05-03T18:35:49.444Z,11.20
2023-05-03T18:38:16.701Z,11.20
2023-05-03T18:40:43.625Z,11.10
2023-05-03T18:43:10.563Z,11.00
2023-05-03T18:45:40.491Z,10.90
2023-05-03T18:48:07.696Z,10.80
2023-05-03T18:50:35.582Z,10.90
2023-05-03T18:53:02.467Z,10.80
2023-05-03T18:55:29.315Z,10.90
2023-05-03T18:57:56.284Z,10.80
2023-05-03T19:00:23.244Z,10.80
2023-05-03T19:02:50.117Z,10.70
2023-05-03T19:05:17.074Z,10.80
2023-05-03T19:07:47.413Z,10.70
2023-05-03T19:10:15.869Z,10.70
2023-05-03T19:12:44.820Z,10.60
2023-05-03T19:15:11.893Z,10.50
2023-05-03T19:17:42.050Z,10.50
2023-05-03T19:20:10.489Z,10.40
2023-05-03T19:22:37.723Z,10.40
2023-05-03T19:25:05.508Z,10.30
2023-05-03T19:27:32.484Z,10.30
2023-05-03T19:29:59.467Z,10.20
2023-05-03T19:32:26.371Z,10.10
2023-05-03T19:34:53.320Z,10.10
2023-05-03T19:37:20.312Z,10.10
2023-05-03T19:39:47.280Z,10.00
2023-05-03T19:42:14.170Z,10.00
2023-05-03T19:44:41.171Z,10.00
2023-05-03T19:47:08.794Z,10.00
2023-05-03T19:49:35.765Z,9.90
2023-05-03T19:52:04.652Z,9.90
2023-05-03T19:54:33.104Z,9.90
2023-05-03T19:57:06.288Z,9.90
2023-05-03T19:59:33.496Z,9.80
2023-05-03T20:02:00.589Z,9.80
2023-05-03T20:04:27.755Z,9.80
2023-05-03T20:06:54.675Z,9.80
2023-05-03T20:09:23.541Z,9.70
2023-05-03T20:11:51.109Z,9.70
2023-05-03T20:14:18.749Z,9.70
2023-05-03T20:16:46.036Z,9.60
2023-05-03T20:19:13.391Z,9.60
2023-05-03T20:21:40.305Z,9.70
2023-05-03T20:24:10.882Z,9.70
2023-05-03T20:26:38.411Z,9.70
2023-05-03T20:29:05.483Z,9.60
2023-05-03T20:31:32.591Z,9.60
2023-05-03T20:33:59.640Z,9.60
2023-05-03T20:36:26.527Z,9.60
2023-05-03T20:38:54.893Z,9.60
2023-05-03T20:41:22.592Z,9.60
2023-05-03T20:43:50.905Z,9.50
2023-05-03T20:46:18.388Z,9.50
2023-05-03T20:48:45.382Z,9.50
2023-05-03T20:51:12.279Z,9.50
2023-05-03T20:53:39.184Z,9.50
2023-05-03T20:56:07.950Z,9.40
2023-05-03T20:58:35.039Z,9.50
2023-05-03T21:01:05.512Z,9.50
2023-05-03T21:03:32.672Z,9.50
2023-05-03T21:05:59.633Z,9.50
2023-05-03T21:08:26.582Z,9.40
2023-05-03T21:10:53.632Z,9.40
2023-05-03T21:13:20.857Z,9.40
2023-05-03T21:15:47.747Z,9.40
2023-05-03T21:18:14.634Z,9.50
2023-05-03T21:20:41.482Z,9.40
2023-05-03T21:23:08.392Z,9.40
2023-05-03T21:25:35.263Z,9.40
2023-05-03T21:28:02.217Z,9.40
2023-05-03T21:30:29.133Z,9.40
2023-05-03T21:32:56.144Z,9.40
2023-05-03T21:35:23.054Z,9.40
2023-05-03T21:37:50.092Z,9.40
2023-05-03T21:40:17.047Z,9.40
2023-05-03T21:42:44.246Z,9.40
2023-05-03T21:45:11.502Z,9.40
2023-05-03T21:47:38.527Z,9.40
2023-05-03T21:50:08.630Z,9.40
2023-05-03T21:52:36.221Z,9.40
2023-05-03T21:55:03.173Z,9.40
2023-05-03T21:57:31.888Z,9.40
2023-05-03T21:59:59.977Z,9.40
2023-05-03T22:02:27.218Z,9.40
2023-05-03T22:04:54.202Z,9.40
2023-05-03T22:07:21.155Z,9.40
2023-05-03T22:09:48.391Z,9.40
2023-05-03T22:14:45.413Z,9.30
2023-05-03T22:17:12.286Z,9.30
2023-05-03T22:19:39.234Z,9.30
2023-05-03T22:22:06.108Z,9.40
2023-05-03T22:24:32.998Z,9.30
2023-05-03T22:27:00.384Z,9.30
2023-05-03T22:29:27.314Z,9.30
2023-05-03T22:31:54.456Z,9.30
2023-05-03T22:34:21.411Z,9.30
2023-05-03T22:36:48.262Z,9.30
2023-05-03T22:39:15.900Z,9.30
2023-05-03T22:41:42.832Z,9.20
2023-05-03T22:44:09.742Z,9.20
2023-05-03T22:46:36.830Z,9.20
2023-05-03T22:49:04.084Z,9.20
2023-05-03T22:51:31.961Z,9.10
2023-05-03T22:53:58.896Z,9.10
2023-05-03T22:56:25.771Z,9.10
2023-05-03T22:58:52.730Z,9.00
2023-05-03T23:01:19.659Z,9.10
2023-05-03T23:03:47.174Z,9.00
2023-05-03T23:06:15.133Z,9.00
2023-05-03T23:08:42.081Z,9.00
2023-05-03T23:11:09.479Z,9.00
2023-05-03T23:13:36.327Z,9.00
2023-05-03T23:16:03.282Z,9.00
2023-05-03T23:18:30.148Z,9.00
2023-05-03T23:20:57.024Z,9.00
2023-05-03T23:23:23.892Z,8.90
2023-05-03T23:25:50.804Z,8.90
2023-05-03T23:28:17.705Z,9.00
2023-05-03T23:30:45.100Z,9.00
2023-05-03T23:33:12.613Z,8.90
2023-05-03T23:35:40.583Z,8.90
2023-05-03T23:38:07.535Z,8.90
2023-05-03T23:40:34.466Z,8.90
2023-05-03T23:43:01.524Z,8.90
2023-05-03T23:45:28.462Z,8.90
2023-05-03T23:47:55.587Z,8.90
2023-05-03T23:50:22.509Z,8.90
2023-05-03T23:52:49.379Z,8.80
2023-05-03T23:55:16.239Z,8.80
2023-05-03T23:57:43.132Z,8.80
